Bly, OR (97622)

5:49 PM PST on February 26, 2015 (GMT -0800)
Ferguson Mountain | Change Station
CLOSE
Current Station
Personal Weather Station
Location: Beatty, OR
Elevation: 4843 ft
Nearby Weather Stations
Active Advisory: Special Statement

Elev 4843 ft 42.48 °N, 121.21 °W | Updated 26 seconds ago

Overcast
Overcast
40.8 °F
Feels Like 41 °F
N
0.0
Wind Variable Wind from WNW
Gusts 6.0 mph

Today
High -- | Low -- °F
--% Chance of Precip.
Yesterday
High -- | Low -- °F
Precip. -- in
6:45 AM 5:50 PM
Waxing Gibbous, 64% visible
Pressure 30.03 in
Visibility 10.0 miles
Clouds Overcast 8000 ft
Windchill 41 °F
Dew Point 4 °F
Humidity 21%
Rainfall 0.00 in
Snow Depth Not available.
UV 0 out of 12
Pollen 5.60 out of 12
Air Quality Not available.
Flu Activity Not available.
METAR KLMT 270053Z 27013KT 10SM OVC080 06/00 A3001 RMK AO2 SLP169 T00560000

More Conditions Fewer Conditions

Pressure 30.03 in
Visibility 10.0 miles
Clouds Overcast 8000 ft
Windchill 41 °F
Dew Point 4 °F
Humidity 21%
Rainfall 0.00 in
Snow Depth Not available.
UV 0 out of 12
Pollen 5.60 out of 12
Air Quality Not available.
Flu Activity Not available.
METAR KLMT 270053Z 27013KT 10SM OVC080 06/00 A3001 RMK AO2 SLP169 T00560000

More Conditions Fewer Conditions

10-Day Weather Forecast

Almanac

Astronomy

Feb. 26, 2015 Rise Set
Actual Time
Civil Twilight
Nautical Twilight
Astronomical Twilight
Moon
Length of Visible Light
Length of Day
Tomorrow will be .
, % of the Moon is Illuminated

Today's Extremes

State Highs State Lows

Community

WunderPhotos

Upload Photos

1,800,553 photos uploaded!

WunderBlogs® & News

Nearby

Air Quality

  Air Quality AQ Index Pollutant
Not available.

Snow Depth

Station Depth Elevation

Earthquake Activity

City Distance Mag. Time & Date
Minimum magnitude displayed is 2.5.

Coastal Water Temperatures

Place Temperature

Nearby Weather Stations

Special Statement
Statement as of 1:38 PM PST on February 26, 2015

... Light to moderate snow expected tonight through Friday
night...

Timing: tonight through Friday night.

Snow: storm total of 1 to 3 inches are possible with the highest
amounts expected along Highway 97 near Chemult and along Highway
140 east of Bly.

Impacts: slippery and snow covered roads are possible Thursday
night and Friday along Highway 97 near Chemult and Highway 140
east of Bly. Motorists should allow for extra time for traveling
and be prepared for wintry travel.



138 PM PST Thu Feb 26 2015

... Light to moderate snow expected tonight through Friday
night...

Timing: tonight through Friday night.

Snow: storm total of 1 to 3 inches are possible with the highest
amounts expected along Highway 97 near Chemult and along Highway
140 east of Bly.

Impacts: slippery and snow covered roads are possible Thursday
night and Friday along Highway 97 near Chemult and Highway 140
east of Bly. Motorists should allow for extra time for traveling
and be prepared for wintry travel.